Time;durP1;ratioP1;P1;durP2;ratioP2;P2;SDS_P1;SDS_P2;PMS_P1;PMS_P2;Temp;Humidity;BMP_temperature;BMP_pressure;BME280_temperature;BME280_humidity;BME280_pressure;Samples;Min_cycle;Max_cycle;Signal;HPM_P1;HPM_P2
2021/03/23 00:00:15;;;;;;;6.95;4.05;;;21.50;33.70;;;;;;5076685;28;20143;-78
2021/03/23 00:02:41;;;;;;;5.57;3.92;;;21.50;33.60;;;;;;5078561;28;20498;-78
2021/03/23 00:05:10;;;;;;;7.47;4.45;;;21.40;33.70;;;;;;5058357;28;20040;-77
2021/03/23 00:07:35;;;;;;;7.88;4.00;;;21.40;33.70;;;;;;5075815;28;20576;-77
2021/03/23 00:10:01;;;;;;;7.97;4.30;;;21.40;33.80;;;;;;5072843;28;20016;-77
2021/03/23 00:12:26;;;;;;;10.30;4.78;;;21.40;33.80;;;;;;5076756;28;20479;-77
2021/03/23 00:14:52;;;;;;;8.48;4.65;;;21.40;33.80;;;;;;5094032;28;20412;-77
2021/03/23 00:17:18;;;;;;;8.43;4.88;;;21.40;33.80;;;;;;5083549;28;20748;-77
2021/03/23 00:19:43;;;;;;;7.82;4.85;;;21.40;33.80;;;;;;5092407;28;20037;-78
2021/03/23 00:22:09;;;;;;;7.18;4.72;;;21.40;33.80;;;;;;5091622;28;20036;-78
2021/03/23 00:24:34;;;;;;;11.45;6.35;;;21.30;33.70;;;;;;5077025;28;20039;-76
2021/03/23 00:27:00;;;;;;;9.13;5.63;;;21.40;33.80;;;;;;5073573;28;20103;-76
2021/03/23 00:29:25;;;;;;;13.75;5.90;;;21.40;33.70;;;;;;5075017;28;20059;-76
2021/03/23 00:31:51;;;;;;;9.63;5.55;;;21.40;33.70;;;;;;5069954;28;20403;-76
2021/03/23 00:34:16;;;;;;;12.43;6.13;;;21.40;34.30;;;;;;5076128;28;20048;-76
2021/03/23 00:36:42;;;;;;;11.65;6.00;;;21.40;33.60;;;;;;5093034;28;20031;-75
2021/03/23 00:39:08;;;;;;;9.98;6.13;;;21.40;33.70;;;;;;5072499;28;20039;-76
2021/03/23 00:41:36;;;;;;;9.90;5.70;;;21.40;33.70;;;;;;5055432;28;20055;-76
2021/03/23 00:44:05;;;;;;;12.27;6.25;;;21.40;33.60;;;;;;5082175;28;20523;-76
2021/03/23 00:46:31;;;;;;;13.70;6.72;;;21.30;33.60;;;;;;5075556;28;20031;-76
2021/03/23 00:48:57;;;;;;;12.32;6.60;;;21.40;33.60;;;;;;5064230;28;20483;-77
2021/03/23 00:51:22;;;;;;;10.30;6.43;;;21.30;33.60;;;;;;5054664;28;20064;-77
2021/03/23 00:53:48;;;;;;;12.63;7.05;;;21.30;33.60;;;;;;5102652;28;20019;-77
2021/03/23 00:56:13;;;;;;;11.80;6.93;;;21.30;33.70;;;;;;5093178;28;20029;-77
2021/03/23 00:58:39;;;;;;;12.70;7.47;;;21.30;33.60;;;;;;5087909;28;20023;-76
2021/03/23 01:01:04;;;;;;;20.55;7.20;;;21.30;33.60;;;;;;5093008;28;20522;-77
2021/03/23 01:03:30;;;;;;;11.95;7.10;;;21.30;33.60;;;;;;5096505;28;20111;-77
2021/03/23 01:05:55;;;;;;;14.27;7.43;;;21.30;33.60;;;;;;5093400;28;20035;-76
2021/03/23 01:08:21;;;;;;;12.55;7.30;;;21.30;33.70;;;;;;5093799;28;20035;-77
2021/03/23 01:10:47;;;;;;;11.63;6.85;;;21.30;33.70;;;;;;5101459;28;20041;-76
2021/03/23 01:13:12;;;;;;;15.88;7.53;;;21.30;33.70;;;;;;5092883;28;20047;-76
2021/03/23 01:15:38;;;;;;;13.88;7.07;;;21.30;33.70;;;;;;5058531;28;20040;-76
2021/03/23 01:18:04;;;;;;;13.68;7.38;;;21.30;33.70;;;;;;5063691;28;20040;-76
2021/03/23 01:20:30;;;;;;;12.10;7.53;;;21.20;33.70;;;;;;5093399;28;20032;-76
2021/03/23 01:22:56;;;;;;;20.08;6.80;;;21.20;33.70;;;;;;5074013;28;20443;-75
2021/03/23 01:25:21;;;;;;;13.50;7.00;;;21.20;33.70;;;;;;5092151;28;20089;-77
2021/03/23 01:27:49;;;;;;;12.95;6.90;;;21.20;33.80;;;;;;5074968;28;20439;-77
2021/03/23 01:30:20;;;;;;;16.40;8.02;;;21.10;33.70;;;;;;5074322;28;20035;-76
2021/03/23 01:32:46;;;;;;;12.15;7.43;;;21.20;33.80;;;;;;5086133;28;20020;-77
2021/03/23 01:35:11;;;;;;;16.00;7.78;;;21.20;33.80;;;;;;5081373;28;20543;-77
2021/03/23 01:37:37;;;;;;;11.15;7.22;;;21.10;33.70;;;;;;5056365;28;20082;-76
2021/03/23 01:40:03;;;;;;;14.55;7.05;;;21.10;33.90;;;;;;5077922;28;20052;-75
2021/03/23 01:42:52;;;;;;;14.02;7.65;;;21.10;33.90;;;;;;5073658;28;20039;-75
2021/03/23 01:45:28;;;;;;;14.18;7.28;;;21.10;33.90;;;;;;5072921;28;20038;-76
2021/03/23 01:47:55;;;;;;;13.15;7.53;;;21.10;33.90;;;;;;5069827;28;20399;-75
2021/03/23 01:50:21;;;;;;;13.07;7.55;;;21.10;34.60;;;;;;5092337;28;20035;-77
2021/03/23 01:52:49;;;;;;;14.20;7.50;;;21.10;34.00;;;;;;5068611;28;20118;-76
2021/03/23 01:55:26;;;;;;;15.05;7.07;;;21.00;34.00;;;;;;5072960;28;20078;-76
2021/03/23 01:57:52;;;;;;;12.50;6.68;;;21.00;34.60;;;;;;5079554;28;20135;-76
2021/03/23 02:00:18;;;;;;;15.55;7.40;;;21.00;34.00;;;;;;5074197;28;20123;-76
2021/03/23 02:02:43;;;;;;;15.88;7.90;;;21.00;34.00;;;;;;5057117;28;20040;-76
2021/03/23 02:05:17;;;;;;;17.05;7.78;;;21.00;34.10;;;;;;5082539;28;20543;-75
2021/03/23 02:07:43;;;;;;;15.85;8.38;;;21.00;34.00;;;;;;5076411;28;20549;-75
2021/03/23 02:10:08;;;;;;;16.33;7.30;;;21.00;34.70;;;;;;5074504;28;20032;-75
2021/03/23 02:12:34;;;;;;;10.75;6.97;;;21.00;34.00;;;;;;5073341;28;20016;-75
2021/03/23 02:15:00;;;;;;;14.82;7.05;;;21.00;34.10;;;;;;5077415;28;20526;-75
2021/03/23 02:17:29;;;;;;;13.38;7.00;;;20.90;34.00;;;;;;5092475;28;20031;-75
2021/03/23 02:20:15;;;;;;;14.45;7.15;;;20.90;34.00;;;;;;5091375;28;20115;-75
2021/03/23 02:22:48;;;;;;;16.58;7.15;;;20.90;34.00;;;;;;5055170;28;20028;-75
2021/03/23 02:25:22;;;;;;;13.63;6.57;;;21.00;34.10;;;;;;5074529;28;20029;-75
2021/03/23 02:27:47;;;;;;;12.77;6.70;;;21.00;34.10;;;;;;5080565;28;20806;-78
2021/03/23 02:30:22;;;;;;;14.50;7.68;;;21.00;34.10;;;;;;5069106;28;20046;-78
2021/03/23 02:32:47;;;;;;;13.48;7.45;;;21.00;34.00;;;;;;5059259;28;20427;-78
2021/03/23 02:35:13;;;;;;;15.25;7.72;;;21.00;34.10;;;;;;5074237;28;20028;-78
2021/03/23 02:37:39;;;;;;;12.95;6.97;;;21.00;34.10;;;;;;5077575;28;20365;-78
2021/03/23 02:40:05;;;;;;;17.48;7.32;;;21.00;34.10;;;;;;5074629;28;20035;-78
2021/03/23 02:42:31;;;;;;;17.13;7.50;;;21.00;34.10;;;;;;5040448;28;20462;-79
2021/03/23 02:44:56;;;;;;;16.17;7.88;;;21.00;34.10;;;;;;5072637;28;20124;-76
2021/03/23 02:47:22;;;;;;;19.00;8.32;;;21.00;34.10;;;;;;5072660;28;20450;-76
2021/03/23 02:49:47;;;;;;;14.85;8.15;;;21.00;34.10;;;;;;5073681;28;20043;-76
2021/03/23 02:52:13;;;;;;;14.43;7.75;;;20.90;34.00;;;;;;5073400;28;20019;-77
2021/03/23 02:54:39;;;;;;;20.17;8.10;;;20.90;34.00;;;;;;5063602;28;20063;-77
2021/03/23 02:57:06;;;;;;;13.25;6.32;;;20.90;34.10;;;;;;5077034;28;20070;-76
2021/03/23 02:59:32;;;;;;;15.70;7.80;;;20.90;34.10;;;;;;5095830;28;20026;-77
2021/03/23 03:01:57;;;;;;;14.15;7.93;;;20.90;34.20;;;;;;5069479;28;20032;-77
2021/03/23 03:04:23;;;;;;;13.60;7.03;;;20.90;34.20;;;;;;5076494;28;20024;-75
2021/03/23 03:06:48;;;;;;;18.40;8.13;;;20.90;34.20;;;;;;5095305;28;20022;-78
2021/03/23 03:09:14;;;;;;;14.73;6.88;;;20.90;34.30;;;;;;5095334;28;20076;-76
2021/03/23 03:11:39;;;;;;;15.55;7.57;;;20.90;34.30;;;;;;5060609;28;20040;-76
2021/03/23 03:14:05;;;;;;;20.75;8.18;;;20.90;34.30;;;;;;5056888;28;20025;-75
2021/03/23 03:16:31;;;;;;;15.60;7.25;;;20.90;34.40;;;;;;5093899;28;20032;-75
2021/03/23 03:18:56;;;;;;;18.42;8.23;;;20.90;34.40;;;;;;5080306;28;20554;-77
2021/03/23 03:21:22;;;;;;;17.15;7.90;;;20.90;34.40;;;;;;5076452;28;20543;-76
2021/03/23 03:23:48;;;;;;;13.27;7.13;;;20.90;34.40;;;;;;5063150;28;20445;-76
2021/03/23 03:26:13;;;;;;;19.80;7.53;;;20.80;34.30;;;;;;5080202;28;20107;-76
2021/03/23 03:28:39;;;;;;;19.85;8.98;;;20.80;34.30;;;;;;5079922;28;20028;-76
2021/03/23 03:31:05;;;;;;;16.00;8.48;;;20.80;34.30;;;;;;5095443;28;20028;-76
2021/03/23 03:33:30;;;;;;;18.63;9.20;;;20.80;34.30;;;;;;5080056;28;20040;-76
2021/03/23 03:35:56;;;;;;;23.67;8.70;;;20.80;34.40;;;;;;5071240;28;20016;-76
2021/03/23 03:38:24;;;;;;;18.45;8.60;;;20.80;34.40;;;;;;5071790;28;20096;-76
2021/03/23 03:40:52;;;;;;;17.35;8.55;;;20.80;34.50;;;;;;5082384;28;20036;-76
2021/03/23 03:43:18;;;;;;;16.92;8.82;;;20.80;34.40;;;;;;5083699;28;20496;-76
2021/03/23 03:45:44;;;;;;;16.92;8.48;;;20.80;34.40;;;;;;5093736;28;20507;-76
2021/03/23 03:48:34;;;;;;;16.02;8.25;;;20.70;34.40;;;;;;5075275;28;20055;-75
2021/03/23 03:51:00;;;;;;;17.55;7.93;;;20.80;34.40;;;;;;5065090;28;20034;-76
2021/03/23 03:53:26;;;;;;;20.50;8.65;;;20.70;34.50;;;;;;5102847;28;20518;-75
2021/03/23 03:55:52;;;;;;;17.80;8.80;;;20.70;34.40;;;;;;5040800;28;20499;-77
2021/03/23 03:58:18;;;;;;;16.98;8.57;;;20.70;34.50;;;;;;5086148;28;20039;-76
2021/03/23 04:00:44;;;;;;;22.60;8.18;;;20.70;34.50;;;;;;5075497;28;20028;-76
2021/03/23 04:03:18;;;;;;;18.58;8.35;;;20.70;34.50;;;;;;5076202;28;20040;-76
2021/03/23 04:05:44;;;;;;;21.05;9.32;;;20.70;34.60;;;;;;5060307;28;20411;-76
2021/03/23 04:08:12;;;;;;;19.23;8.55;;;20.70;34.60;;;;;;5060645;28;20024;-76
2021/03/23 04:10:38;;;;;;;14.07;7.85;;;20.70;34.50;;;;;;5067603;28;20127;-76
2021/03/23 04:13:04;;;;;;;18.63;8.93;;;20.70;34.50;;;;;;5066328;28;20047;-77
2021/03/23 04:15:58;;;;;;;17.13;8.43;;;20.70;34.50;;;;;;5067400;28;20031;-78
2021/03/23 04:18:24;;;;;;;18.48;8.45;;;20.70;34.50;;;;;;5062749;28;20067;-77
2021/03/23 04:20:50;;;;;;;15.77;8.77;;;20.70;34.50;;;;;;5058446;28;20578;-76
2021/03/23 04:23:33;;;;;;;17.77;8.75;;;20.70;34.40;;;;;;5076671;28;20032;-77
2021/03/23 04:25:59;;;;;;;18.33;9.48;;;20.70;34.40;;;;;;5079041;28;20033;-76
2021/03/23 04:28:24;;;;;;;14.90;8.60;;;20.70;34.40;;;;;;5061059;28;20105;-76
2021/03/23 04:30:50;;;;;;;16.67;8.35;;;20.70;34.40;;;;;;5089053;28;20096;-77
2021/03/23 04:33:16;;;;;;;18.85;8.88;;;20.70;34.40;;;;;;5077632;28;20446;-76
2021/03/23 04:35:53;;;;;;;19.77;8.88;;;20.70;34.40;;;;;;5059000;28;20499;-76
2021/03/23 04:38:23;;;;;;;22.27;9.32;;;20.70;34.40;;;;;;5060552;28;20040;-76
2021/03/23 04:40:49;;;;;;;16.40;8.80;;;20.70;34.40;;;;;;5058850;28;20038;-76
2021/03/23 04:43:24;;;;;;;20.80;9.52;;;20.70;34.40;;;;;;5075507;28;20444;-76
2021/03/23 04:45:49;;;;;;;17.55;8.82;;;20.70;34.40;;;;;;5092949;28;20020;-76
2021/03/23 04:48:15;;;;;;;19.20;8.93;;;20.70;34.40;;;;;;5075860;28;20074;-75
2021/03/23 04:50:41;;;;;;;20.05;9.77;;;20.70;34.40;;;;;;5060780;28;20036;-76
2021/03/23 04:53:06;;;;;;;20.30;9.68;;;20.70;34.50;;;;;;5058590;28;20078;-76
2021/03/23 04:55:32;;;;;;;19.77;9.93;;;20.70;34.40;;;;;;5092299;28;20507;-77
2021/03/23 04:57:57;;;;;;;20.65;9.75;;;20.70;34.50;;;;;;5093556;28;20074;-75
2021/03/23 05:00:23;;;;;;;17.58;8.68;;;20.70;34.50;;;;;;5074666;28;20032;-77
2021/03/23 05:02:49;;;;;;;0.73;0.65;;;20.70;34.50;;;;;;5060454;28;20476;-76
2021/03/23 05:05:14;;;;;;;0.88;0.55;;;20.60;34.50;;;;;;5092569;28;20035;-76
2021/03/23 05:07:40;;;;;;;0.95;0.73;;;20.60;34.50;;;;;;5055767;28;20072;-75
2021/03/23 05:10:59;;;;;;;0.55;0.40;;;20.60;34.50;;;;;;5059252;28;20074;-76
2021/03/23 05:13:24;;;;;;;2.80;0.65;;;20.60;34.50;;;;;;5093651;28;20530;-76
2021/03/23 05:15:50;;;;;;;0.50;0.40;;;20.70;34.50;;;;;;5094877;28;20095;-76
2021/03/23 05:18:15;;;;;;;1.95;0.82;;;20.70;34.50;;;;;;5074789;28;20020;-76
2021/03/23 05:20:41;;;;;;;3.65;0.88;;;20.80;34.50;;;;;;5064006;28;20047;-75
2021/03/23 05:23:07;;;;;;;4.15;0.85;;;20.80;34.40;;;;;;5080451;28;20111;-75
2021/03/23 05:25:33;;;;;;;2.03;1.00;;;20.90;34.40;;;;;;5092679;28;20564;-75
2021/03/23 05:27:58;;;;;;;0.55;0.55;;;21.00;34.30;;;;;;5040729;28;20495;-75
2021/03/23 05:30:24;;;;;;;1.30;0.93;;;21.00;34.10;;;;;;5073960;28;20028;-77
2021/03/23 05:32:50;;;;;;;2.20;0.85;;;21.10;34.10;;;;;;5093161;28;20446;-77
2021/03/23 05:35:57;;;;;;;1.73;0.98;;;21.20;34.00;;;;;;5074246;28;20410;-77
2021/03/23 05:38:23;;;;;;;;;;;21.30;33.90;;;;;;5088681;28;20070;-77
2021/03/23 05:40:52;;;;;;;0.55;0.55;;;21.30;33.90;;;;;;5073599;28;19947;-77
2021/03/23 05:43:45;;;;;;;2.15;0.93;;;21.30;33.70;;;;;;5072091;28;20499;-76
2021/03/23 05:46:10;;;;;;;2.47;0.88;;;21.40;33.80;;;;;;5090635;28;20044;-76
2021/03/23 05:48:36;;;;;;;2.50;0.50;;;21.40;33.70;;;;;;5094362;28;20035;-74
2021/03/23 05:51:10;;;;;;;1.55;0.60;;;21.40;33.70;;;;;;5056403;28;20027;-74
2021/03/23 05:53:42;;;;;;;0.35;0.35;;;21.40;33.90;;;;;;5089819;28;20099;-76
2021/03/23 05:56:07;;;;;;;2.70;1.13;;;21.50;33.60;;;;;;5059391;28;20028;-75
2021/03/23 05:58:35;;;;;;;1.92;0.95;;;21.50;33.60;;;;;;5073190;28;20028;-75
2021/03/23 06:01:02;;;;;;;0.80;0.57;;;21.40;33.60;;;;;;5043881;28;20036;-75
2021/03/23 06:03:29;;;;;;;1.65;1.02;;;21.40;34.30;;;;;;5057233;28;20051;-75
2021/03/23 06:06:14;;;;;;;1.50;0.57;;;21.50;34.30;;;;;;5091211;28;20078;-74
2021/03/23 06:08:39;;;;;;;0.43;0.38;;;21.50;33.70;;;;;;5092867;28;20031;-74
2021/03/23 06:11:05;;;;;;;0.77;0.52;;;21.50;33.70;;;;;;5058160;28;20024;-75
2021/03/23 06:14:12;;;;;;;4.35;0.80;;;21.50;33.70;;;;;;5096905;28;20095;-75
2021/03/23 06:16:56;;;;;;;0.47;0.47;;;21.50;34.40;;;;;;5093234;28;20031;-76
2021/03/23 06:19:42;;;;;;;1.10;0.80;;;21.50;33.70;;;;;;5066785;28;20384;-75
2021/03/23 06:22:19;;;;;;;1.15;0.98;;;21.50;33.80;;;;;;5063530;28;20056;-75
2021/03/23 06:25:23;;;;;;;0.63;0.50;;;21.50;33.80;;;;;;5077430;28;20036;-76
2021/03/23 06:28:07;;;;;;;3.40;0.75;;;21.40;33.90;;;;;;5056496;28;20078;-74
2021/03/23 06:30:51;;;;;;;0.40;0.40;;;21.50;33.90;;;;;;5090251;28;20034;-74
2021/03/23 06:33:19;;;;;;;0.65;0.30;;;21.40;33.90;;;;;;5071000;28;20066;-74
2021/03/23 06:35:46;;;;;;;0.20;0.20;;;21.40;33.90;;;;;;5065757;28;20091;-74
2021/03/23 06:38:24;;;;;;;0.70;0.60;;;21.40;34.10;;;;;;5070916;28;20048;-74
2021/03/23 06:41:18;;;;;;;0.70;0.65;;;21.50;34.10;;;;;;5073081;28;20103;-74
2021/03/23 06:43:52;;;;;;;1.75;1.00;;;21.40;34.10;;;;;;5073662;28;20515;-74
2021/03/23 06:46:23;;;;;;;1.52;0.77;;;21.50;34.30;;;;;;5055028;28;20054;-74
2021/03/23 06:49:07;;;;;;;3.67;1.42;;;21.50;34.20;;;;;;5059944;28;20039;-74
2021/03/23 06:51:33;;;;;;;1.45;1.00;;;21.50;34.10;;;;;;5097590;28;20028;-74
2021/03/23 06:54:51;;;;;;;2.20;0.90;;;21.60;34.00;;;;;;5073754;28;20027;-74
2021/03/23 06:57:18;;;;;;;1.23;0.93;;;21.70;33.90;;;;;;5042402;28;20074;-74
2021/03/23 06:59:57;;;;;;;0.25;0.25;;;21.70;33.80;;;;;;5022212;28;20046;-74
2021/03/23 07:02:32;;;;;;;3.60;0.88;;;21.80;33.70;;;;;;5009442;28;20032;-74
2021/03/23 07:05:23;;;;;;;0.63;0.45;;;21.80;33.70;;;;;;5033557;28;20065;-74
2021/03/23 07:07:51;;;;;;;0.70;0.65;;;21.80;33.60;;;;;;5017034;28;20042;-74
2021/03/23 07:10:22;;;;;;;1.80;0.88;;;21.80;33.70;;;;;;5019919;28;20512;-74
2021/03/23 07:12:47;;;;;;;0.55;0.43;;;21.80;33.60;;;;;;5040144;28;20068;-74
2021/03/23 07:15:20;;;;;;;2.15;0.55;;;21.90;33.70;;;;;;5033676;28;20025;-75
2021/03/23 07:17:51;;;;;;;0.82;0.40;;;21.90;33.60;;;;;;5050492;28;20021;-74
2021/03/23 07:20:28;;;;;;;0.43;0.40;;;21.90;33.60;;;;;;5017484;28;20555;-74
2021/03/23 07:22:54;;;;;;;0.55;0.40;;;21.90;33.50;;;;;;5025012;28;20025;-74
2021/03/23 07:25:37;;;;;;;0.45;0.22;;;21.80;33.50;;;;;;5015136;28;20037;-74
2021/03/23 07:28:19;;;;;;;5.95;1.15;;;21.80;33.50;;;;;;5025963;28;20567;-74
2021/03/23 07:31:15;;;;;;;1.45;0.73;;;21.80;33.60;;;;;;5043217;28;20566;-75
2021/03/23 07:33:55;;;;;;;2.63;1.40;;;21.80;33.60;;;;;;5091842;28;20051;-74
2021/03/23 07:36:27;;;;;;;0.43;0.38;;;21.80;33.60;;;;;;5070694;28;20028;-74
2021/03/23 07:38:58;;;;;;;1.00;0.77;;;21.80;33.60;;;;;;5062620;28;20451;-74
2021/03/23 07:41:31;;;;;;;0.50;0.28;;;21.80;33.60;;;;;;5067084;28;20127;-74
2021/03/23 07:44:00;;;;;;;4.47;0.85;;;21.80;33.70;;;;;;5064491;28;20081;-74
2021/03/23 07:46:41;;;;;;;3.03;1.23;;;21.80;33.70;;;;;;5056704;28;20492;-77
2021/03/23 07:49:31;;;;;;;1.55;0.95;;;21.80;33.70;;;;;;5062780;28;20736;-75
2021/03/23 07:52:35;;;;;;;0.75;0.75;;;21.80;33.70;;;;;;5080531;28;20071;-80
2021/03/23 07:55:01;;;;;;;0.45;0.45;;;21.80;33.70;;;;;;5046565;28;20037;-80
2021/03/23 07:57:44;;;;;;;0.68;0.32;;;21.80;33.90;;;;;;5041921;28;20092;-80
2021/03/23 08:00:14;;;;;;;1.00;0.65;;;21.80;33.90;;;;;;5036229;28;20526;-79
2021/03/23 08:03:04;;;;;;;2.58;1.10;;;21.80;33.80;;;;;;5044444;28;20056;-85
2021/03/23 08:06:11;;;;;;;0.98;0.32;;;21.80;33.90;;;;;;5046159;28;20033;-82
2021/03/23 08:08:48;;;;;;;1.00;0.45;;;21.80;34.00;;;;;;4964013;28;20093;-83
2021/03/23 08:11:14;;;;;;;3.75;1.25;;;21.80;33.90;;;;;;4969946;28;20047;-83
2021/03/23 08:14:02;;;;;;;1.60;0.77;;;21.80;33.90;;;;;;4971298;28;20043;-79
2021/03/23 08:16:47;;;;;;;2.45;0.63;;;21.80;34.00;;;;;;4949182;28;20122;-69
2021/03/23 08:20:02;;;;;;;1.38;0.80;;;21.80;33.90;;;;;;4967801;28;20499;-76
2021/03/23 08:22:40;;;;;;;2.65;1.05;;;21.80;34.00;;;;;;4896365;29;20169;-76
2021/03/23 08:25:11;;;;;;;0.63;0.63;;;21.80;34.00;;;;;;4898949;29;20046;-70
2021/03/23 08:27:45;;;;;;;1.75;0.90;;;21.80;34.00;;;;;;4901915;29;20040;-71
2021/03/23 08:30:26;;;;;;;0.43;0.38;;;21.80;34.00;;;;;;4914760;29;20048;-70
2021/03/23 08:32:54;;;;;;;2.85;1.30;;;21.80;34.00;;;;;;4922274;29;20066;-70
2021/03/23 08:35:40;;;;;;;1.15;1.05;;;21.90;33.90;;;;;;4937797;29;20020;-70
2021/03/23 08:38:40;;;;;;;2.10;1.13;;;21.90;33.80;;;;;;4936490;29;20083;-75
2021/03/23 08:41:52;;;;;;;0.75;0.40;;;21.90;33.80;;;;;;4889526;29;20475;-75
2021/03/23 08:44:35;;;;;;;3.03;1.02;;;22.00;34.40;;;;;;4889880;28;20165;-74
2021/03/23 08:47:12;;;;;;;2.25;0.80;;;22.00;33.60;;;;;;4935874;28;22636;-76
2021/03/23 08:49:38;;;;;;;1.50;1.20;;;22.10;33.60;;;;;;4943458;28;20155;-74
2021/03/23 08:52:15;;;;;;;1.00;0.75;;;22.10;33.60;;;;;;4943676;28;20043;-75
2021/03/23 08:54:45;;;;;;;1.02;0.70;;;22.20;33.50;;;;;;5010519;28;20041;-75
2021/03/23 08:57:11;;;;;;;5.85;1.02;;;22.20;33.30;;;;;;5016415;28;20044;-75
2021/03/23 09:02:58;;;;;;;0.68;0.55;;;22.30;33.30;;;;;;5024184;28;20076;-75
2021/03/23 09:05:36;;;;;;;2.28;1.20;;;22.30;33.10;;;;;;5029726;28;20041;-75
2021/03/23 09:08:21;;;;;;;3.30;0.80;;;22.40;33.20;;;;;;5011024;28;20092;-75
2021/03/23 09:10:51;;;;;;;2.03;1.08;;;22.40;32.80;;;;;;5028786;28;20057;-75
2021/03/23 09:13:35;;;;;;;9.57;2.25;;;22.40;33.00;;;;;;5019801;28;20018;-75
2021/03/23 09:16:02;;;;;;;2.67;1.40;;;22.40;32.90;;;;;;5026140;28;20085;-75
2021/03/23 09:18:29;;;;;;;0.50;0.50;;;22.50;32.80;;;;;;5056525;28;20044;-75
2021/03/23 09:21:02;;;;;;;2.25;1.48;;;22.50;32.60;;;;;;5068127;28;20117;-75
2021/03/23 09:23:28;;;;;;;1.80;0.90;;;22.50;32.60;;;;;;5075801;28;20055;-75
2021/03/23 09:26:01;;;;;;;0.80;0.77;;;22.50;32.80;;;;;;5093635;28;20032;-75
2021/03/23 09:28:30;;;;;;;2.88;1.10;;;22.50;32.90;;;;;;5040338;28;20032;-75
2021/03/23 09:31:12;;;;;;;4.13;1.58;;;22.60;32.80;;;;;;5091025;28;20635;-74
2021/03/23 09:33:39;;;;;;;1.95;1.42;;;22.60;32.50;;;;;;5075629;28;20016;-76
2021/03/23 09:36:11;;;;;;;2.58;1.08;;;22.60;32.70;;;;;;5076335;28;20125;-76
2021/03/23 09:38:44;;;;;;;0.45;0.40;;;22.70;32.80;;;;;;5077518;28;20511;-75
2021/03/23 09:41:22;;;;;;;1.65;1.27;;;22.70;32.70;;;;;;5063604;28;20107;-76
2021/03/23 09:43:48;;;;;;;5.28;1.60;;;22.70;32.60;;;;;;5077713;28;20032;-75
2021/03/23 09:46:14;;;;;;;2.63;1.30;;;22.80;32.10;;;;;;5059992;28;20028;-75
2021/03/23 09:48:49;;;;;;;1.88;1.13;;;22.80;32.10;;;;;;5086243;28;20538;-75
2021/03/23 09:51:43;;;;;;;1.55;0.43;;;22.80;32.10;;;;;;5095437;28;20162;-75
2021/03/23 09:54:18;;;;;;;0.70;0.50;;;22.80;32.00;;;;;;5078724;28;20405;-75
2021/03/23 09:56:46;;;;;;;3.15;1.10;;;22.90;32.00;;;;;;5057408;28;20033;-75
2021/03/23 09:59:12;;;;;;;1.60;0.82;;;22.90;32.20;;;;;;5073847;28;20085;-75
2021/03/23 10:02:29;;;;;;;1.27;0.80;;;22.90;32.10;;;;;;5060790;28;20047;-75
2021/03/23 10:05:14;;;;;;;2.75;0.95;;;23.00;32.10;;;;;;4998761;28;20568;-73
2021/03/23 10:07:42;;;;;;;1.70;1.02;;;23.00;32.10;;;;;;5008872;28;20042;-75
2021/03/23 10:10:26;;;;;;;6.22;1.10;;;23.00;32.10;;;;;;5003704;28;20529;-75
2021/03/23 10:12:53;;;;;;;4.13;0.73;;;23.10;32.10;;;;;;4991005;28;20123;-75
2021/03/23 10:15:21;;;;;;;1.02;0.73;;;23.10;32.10;;;;;;4978202;28;20510;-75
2021/03/23 10:17:46;;;;;;;3.25;1.10;;;23.10;31.90;;;;;;5000038;28;20026;-75
2021/03/23 10:20:21;;;;;;;0.77;0.68;;;23.20;32.00;;;;;;5005127;28;20040;-75
2021/03/23 10:22:53;;;;;;;1.55;1.05;;;23.20;32.10;;;;;;4982892;28;20366;-75
2021/03/23 10:25:20;;;;;;;1.38;0.98;;;23.20;32.00;;;;;;5004917;28;20046;-75
2021/03/23 10:27:46;;;;;;;0.57;0.45;;;23.20;31.90;;;;;;4991739;28;20057;-73
2021/03/23 10:30:12;;;;;;;2.08;0.95;;;23.20;31.80;;;;;;4976698;28;20076;-73
2021/03/23 10:32:43;;;;;;;2.25;0.98;;;23.30;31.80;;;;;;5008494;28;20034;-73
2021/03/23 10:35:15;;;;;;;1.02;0.52;;;23.30;31.80;;;;;;5002838;28;20113;-73
2021/03/23 10:37:41;;;;;;;2.92;1.00;;;23.30;31.80;;;;;;5004205;28;20030;-74
2021/03/23 10:40:30;;;;;;;1.45;0.82;;;23.30;31.70;;;;;;5022317;28;20048;-73
2021/03/23 10:42:56;;;;;;;1.40;0.95;;;23.40;31.70;;;;;;5051799;28;20104;-73
2021/03/23 10:45:48;;;;;;;0.90;0.57;;;23.40;31.60;;;;;;5083993;28;20495;-73
2021/03/23 10:48:19;;;;;;;2.08;0.55;;;23.40;31.60;;;;;;5081125;28;20067;-73
2021/03/23 10:50:45;;;;;;;0.80;0.70;;;23.40;31.60;;;;;;5066142;28;20520;-73
2021/03/23 10:53:19;;;;;;;3.20;1.13;;;23.40;32.30;;;;;;5048508;28;20032;-73
2021/03/23 10:55:45;;;;;;;1.08;0.98;;;23.40;31.70;;;;;;5071560;28;20020;-73
2021/03/23 10:58:31;;;;;;;1.10;0.82;;;23.40;31.60;;;;;;5086657;28;20083;-73
2021/03/23 11:01:09;;;;;;;;;;;23.40;31.70;;;;;;5083620;28;20029;-75
2021/03/23 11:03:35;;;;;;;0.60;0.60;;;23.40;31.60;;;;;;5087464;28;19970;-75
2021/03/23 11:06:02;;;;;;;1.85;0.82;;;23.40;31.70;;;;;;5059544;28;20041;-75
2021/03/23 11:08:28;;;;;;;2.42;0.90;;;23.50;31.70;;;;;;5064974;28;20507;-73
2021/03/23 11:10:56;;;;;;;0.98;0.65;;;23.50;31.50;;;;;;5070947;28;20059;-75
2021/03/23 11:13:21;;;;;;;1.95;0.77;;;23.50;31.60;;;;;;5071901;28;20384;-76
2021/03/23 11:15:48;;;;;;;0.93;0.82;;;23.50;31.50;;;;;;5099409;28;20023;-75
2021/03/23 11:18:19;;;;;;;1.40;0.73;;;23.60;31.50;;;;;;5078490;28;20016;-75
2021/03/23 11:20:45;;;;;;;0.75;0.45;;;23.60;31.50;;;;;;5068548;28;20039;-75
2021/03/23 11:23:37;;;;;;;1.10;0.70;;;23.60;31.50;;;;;;5039459;28;20063;-75
2021/03/23 11:26:03;;;;;;;0.60;0.52;;;23.60;31.60;;;;;;5081144;28;20047;-75
2021/03/23 11:28:30;;;;;;;2.60;0.98;;;23.60;31.50;;;;;;5079070;28;20023;-75
2021/03/23 11:30:56;;;;;;;1.45;0.73;;;23.60;31.50;;;;;;5066130;28;20132;-75
2021/03/23 11:33:22;;;;;;;1.25;0.63;;;23.70;31.40;;;;;;5072858;28;20419;-75
2021/03/23 11:35:48;;;;;;;0.80;0.80;;;23.70;31.50;;;;;;5090822;28;20043;-75
2021/03/23 11:38:14;;;;;;;0.43;0.38;;;23.70;31.40;;;;;;5092393;28;20039;-76
2021/03/23 11:40:40;;;;;;;0.35;0.35;;;23.70;31.30;;;;;;5075022;28;20024;-75
2021/03/23 11:43:05;;;;;;;0.88;0.82;;;23.70;31.20;;;;;;5057318;28;20024;-75
2021/03/23 11:45:38;;;;;;;1.13;0.63;;;23.70;31.30;;;;;;5086130;28;20351;-77
2021/03/23 11:48:06;;;;;;;4.68;0.30;;;23.70;31.30;;;;;;5044184;28;20024;-75
2021/03/23 11:50:33;;;;;;;0.10;0.10;;;23.70;31.30;;;;;;5070120;28;20138;-75
2021/03/23 11:52:58;;;;;;;1.25;0.63;;;23.70;31.20;;;;;;5075785;28;20874;-75
2021/03/23 11:55:46;;;;;;;1.77;0.85;;;23.70;31.20;;;;;;5076664;28;20108;-75
2021/03/23 11:58:13;;;;;;;0.50;0.50;;;23.70;31.50;;;;;;5075389;28;20050;-75
2021/03/23 12:00:39;;;;;;;0.43;0.43;;;23.60;31.40;;;;;;5094761;28;20028;-75
2021/03/23 12:03:06;;;;;;;0.43;0.43;;;23.60;31.50;;;;;;5076831;28;20519;-75
2021/03/23 12:05:34;;;;;;;0.30;0.30;;;23.60;31.50;;;;;;5076714;28;20133;-75
2021/03/23 12:08:26;;;;;;;2.53;1.00;;;23.60;31.50;;;;;;5075600;28;20016;-75
2021/03/23 12:11:21;;;;;;;0.63;0.60;;;23.60;31.60;;;;;;5066432;28;20044;-75
2021/03/23 12:14:02;;;;;;;0.43;0.40;;;23.60;31.80;;;;;;5081065;28;20024;-75
2021/03/23 12:16:52;;;;;;;0.20;0.20;;;23.60;31.70;;;;;;5092940;28;20078;-75
2021/03/23 12:19:19;;;;;;;0.65;0.50;;;23.60;31.70;;;;;;5093507;28;20039;-75
2021/03/23 12:21:46;;;;;;;0.85;0.40;;;23.60;31.70;;;;;;5077932;28;20051;-75
2021/03/23 12:24:12;;;;;;;0.98;0.88;;;23.50;31.50;;;;;;5072072;28;20035;-75
2021/03/23 12:26:38;;;;;;;0.65;0.65;;;23.50;31.50;;;;;;5067785;28;20071;-75
2021/03/23 12:29:07;;;;;;;0.80;0.60;;;23.60;31.50;;;;;;5087972;28;20059;-75
2021/03/23 12:31:32;;;;;;;0.95;0.70;;;23.60;31.50;;;;;;5067665;28;20044;-75
2021/03/23 12:33:58;;;;;;;0.95;0.45;;;23.60;31.50;;;;;;5092097;28;20038;-74
2021/03/23 12:36:24;;;;;;;0.70;0.57;;;23.60;31.50;;;;;;5091569;28;20376;-75
2021/03/23 12:38:52;;;;;;;0.25;0.25;;;23.70;31.50;;;;;;5079427;28;20043;-76
2021/03/23 12:41:33;;;;;;;0.73;0.50;;;23.70;31.50;;;;;;5066703;28;20077;-75
2021/03/23 12:43:59;;;;;;;0.35;0.35;;;23.80;31.50;;;;;;5058499;28;20055;-75
2021/03/23 12:49:47;;;;;;;3.92;0.55;;;23.80;31.40;;;;;;5100033;28;20052;-75
2021/03/23 12:52:14;;;;;;;2.88;1.27;;;23.80;31.20;;;;;;5092387;28;20024;-75
2021/03/23 12:54:44;;;;;;;1.55;0.73;;;23.80;31.20;;;;;;5074730;28;20388;-75
2021/03/23 12:57:17;;;;;;;5.47;0.90;;;23.80;31.20;;;;;;5083671;28;20025;-76
2021/03/23 12:59:43;;;;;;;0.40;0.40;;;23.90;31.30;;;;;;5073996;28;20059;-75
2021/03/23 13:02:10;;;;;;;0.57;0.30;;;23.90;31.30;;;;;;5084183;28;20076;-75
2021/03/23 13:04:35;;;;;;;0.32;0.30;;;23.90;31.30;;;;;;5075897;28;20023;-76
2021/03/23 13:07:01;;;;;;;0.35;0.35;;;24.00;31.30;;;;;;5082892;28;20373;-76
2021/03/23 13:09:27;;;;;;;3.53;0.82;;;24.00;31.20;;;;;;5084580;28;20381;-76
2021/03/23 13:11:53;;;;;;;0.50;0.20;;;24.00;31.10;;;;;;5063299;28;20071;-76